Highland, CA (92346)

12:37 PM PDT on October 01, 2014 (GMT -0700)
University of Redlands | Change Station
CLOSE
Current Station
Personal Weather Station
Location: Redlands, CA
Elevation: 1473 ft
Nearby Weather Stations
Active Advisory: Heat Advisory

Elev 1473 ft 34.06 °N, 117.16 °W | Updated 29 seconds ago

Clear
Clear
87.5 °F
Feels Like 85 °F
N
3.0
Wind Variable Wind from West
Gusts 3.0 mph

Today
High -- | Low -- °F
--% Chance of Precip.
Yesterday
High -- | Low -- °F
Precip. -- in
6:43 AM 6:32 PM
Waxing Crescent, 50% visible
Pressure 29.82 in
Visibility 10.0 miles
Clouds Clear
Heat Index 85 °F
Dew Point 49 °F
Humidity 27%
Rainfall 0.00 in
Snow Depth 0 in , 1 in , 0 in
UV 8 out of 12
Pollen 5.50 out of 12
Ozone Good
Flu Activity Not available.
METAR KSBD 011848Z 00000KT 10SM SKC 26/06 A2982

More Conditions Fewer Conditions

Pressure 29.82 in
Visibility 10.0 miles
Clouds Clear
Heat Index 85 °F
Dew Point 49 °F
Humidity 27%
Rainfall 0.00 in
Snow Depth 0 in , 1 in , 0 in
UV 8 out of 12
Pollen 5.50 out of 12
Ozone Good
Flu Activity Not available.
METAR KSBD 011848Z 00000KT 10SM SKC 26/06 A2982

More Conditions Fewer Conditions

10-Day Weather Forecast

Almanac

Astronomy

Oct. 01, 2014 Rise Set
Actual Time 6:43 AM PDT 6:32 PM PDT
Civil Twilight 6:18 AM PDT 6:57 PM PDT
Nautical Twilight 5:49 AM PDT 7:26 PM PDT
Astronomical Twilight 5:20 AM PDT 7:55 PM PDT
Moon 1:36 PM PDT No Moon Set
Length of Visible Light 12h 39m
Length of Day
11h 49m
Tomorrow will be 2m 6s shorter.
Waxing Crescent, 50% of the Moon is Illuminated
Today
Waxing Crescent
Oct 8
Full
Oct 15
Last Quarter
Oct 23
New
Oct 30
First Quarter

Today's Extremes

State Highs State Lows

Community

WunderPhotos

Upload Photos

1,758,012 photos uploaded!

WunderBlogs® & News

By Dr. Jeff Masters
Director of Meteorology, Weather Underground
By Kari Strenfel
Meteorologist, Weather Underground
By Christopher C. Burt
Weather Historian, Weather Underground
October 1, 2014
October 1, 2014
October 1, 2014

Nearby

Air Quality

  Air Quality AQ Index Pollutant
Yesterday Moderate
OZONE
Current Good
OZONE
Thursday Moderate
PM10
Thursday Moderate
OZONE
Thursday Good
CO
Thursday Good
NO2

Snow Depth

Station Depth Elevation
Blue Lakes 0 in 8000 ft
Rubicon #2 1 in 7500 ft
Leavitt Meadows 0 in 7200 ft
Leavitt Lake 1 in 9400 ft
Fallen Leaf 0 in 6300 ft

Earthquake Activity

City Distance Mag. Time & Date
Avalon, California 99 miles 2.6 1:28 PM PDT
2014-09-30
Minimum magnitude displayed is 2.5.

Coastal Water Temperatures

Place Temperature
No Stations Reporting

Nearby Weather Stations